Terminal Aerodrome Forecast
Issued by NWS Tallahassee, FL

Home | Current Version | Previous Version | Text Only | Print | Product List | Glossary On
Versions: 1 2 3 4 5 6 7 8 9 10 11 12 13 14 15 16 17 18 19
000
FTUS42 KTAE 241953 AAA
TAFTLH
TAF AMD
KTLH 241953Z 2420/2518 21012G18KT P6SM BKN016
      TEMPO 2420/2422 VRB20G35KT 1SM +TSRA SCT016 BKN025CB
     FM242200 26015G25KT P6SM SCT250
     FM250300 26007KT P6SM SCT250
     FM251500 28013G18KT P6SM SKC=

USA.gov is the U.S. government's official web portal to all federal, state and local government web resources and services.